sensor_id;sensor_type;location;lat;lon;timestamp;pressure;altitude;pressure_sealevel;temperature;humidity
59987;BME280;46181;51.498;5.392;2022-12-13T00:01:26;101135.1;;;0.06;58.70215
59987;BME280;46181;51.498;5.392;2022-12-13T00:05:55;101133.5;;;0.03;58.69727
59987;BME280;46181;51.498;5.392;2022-12-13T00:10:25;101132.6;;;0;58.70508
59987;BME280;46181;51.498;5.392;2022-12-13T00:14:55;101132.3;;;-0.03;58.65723
59987;BME280;46181;51.498;5.392;2022-12-13T00:19:26;101124.1;;;-0.08;58.79395
59987;BME280;46181;51.498;5.392;2022-12-13T00:23:56;101122.4;;;-0.1;58.75684
59987;BME280;46181;51.498;5.392;2022-12-13T00:28:25;101120.4;;;-0.14;58.7627
59987;BME280;46181;51.498;5.392;2022-12-13T00:32:55;101118.5;;;-0.15;58.73828
59987;BME280;46181;51.498;5.392;2022-12-13T00:37:25;101124.7;;;-0.19;58.75391
59987;BME280;46181;51.498;5.392;2022-12-13T00:41:55;101122.8;;;-0.21;58.75195
59987;BME280;46181;51.498;5.392;2022-12-13T00:46:27;101125.5;;;-0.25;58.75781
59987;BME280;46181;51.498;5.392;2022-12-13T00:50:55;101120.8;;;-0.28;58.74316
59987;BME280;46181;51.498;5.392;2022-12-13T00:55:26;101119.8;;;-0.31;58.76172
59987;BME280;46181;51.498;5.392;2022-12-13T00:59:55;101112.2;;;-0.34;58.80176
59987;BME280;46181;51.498;5.392;2022-12-13T01:04:25;101110;;;-0.36;58.7207
59987;BME280;46181;51.498;5.392;2022-12-13T01:08:55;101109.5;;;-0.39;58.7168
59987;BME280;46181;51.498;5.392;2022-12-13T01:13:25;101111.6;;;-0.42;58.71191
59987;BME280;46181;51.498;5.392;2022-12-13T01:17:55;101102.3;;;-0.43;58.63379
59987;BME280;46181;51.498;5.392;2022-12-13T01:22:25;101101.7;;;-0.48;58.62695
59987;BME280;46181;51.498;5.392;2022-12-13T01:26:55;101099.1;;;-0.53;58.67578
59987;BME280;46181;51.498;5.392;2022-12-13T01:31:27;101095.6;;;-0.57;58.74805
59987;BME280;46181;51.498;5.392;2022-12-13T01:35:58;101099.7;;;-0.55;58.78418
59987;BME280;46181;51.498;5.392;2022-12-13T01:40:25;101108.8;;;-0.56;58.90137
59987;BME280;46181;51.498;5.392;2022-12-13T01:45:25;101115.6;;;-0.61;59.0166
59987;BME280;46181;51.498;5.392;2022-12-13T01:49:26;101112.8;;;-0.62;59.01465
59987;BME280;46181;51.498;5.392;2022-12-13T01:53:57;101111.5;;;-0.6;59.08301
59987;BME280;46181;51.498;5.392;2022-12-13T01:58:26;101106.9;;;-0.51;59.19336
59987;BME280;46181;51.498;5.392;2022-12-13T02:02:57;101106.8;;;-0.49;59.09863
59987;BME280;46181;51.498;5.392;2022-12-13T02:07:28;101106.2;;;-0.44;59.08398
59987;BME280;46181;51.498;5.392;2022-12-13T02:11:56;101106.2;;;-0.38;59.11328
59987;BME280;46181;51.498;5.392;2022-12-13T02:16:32;101106.4;;;-0.35;59.09473
59987;BME280;46181;51.498;5.392;2022-12-13T02:21:09;101099.4;;;-0.35;59.12793
59987;BME280;46181;51.498;5.392;2022-12-13T02:25:40;101104.7;;;-0.31;59.04688
59987;BME280;46181;51.498;5.392;2022-12-13T02:30:24;101106.8;;;-0.36;59.14844
59987;BME280;46181;51.498;5.392;2022-12-13T02:34:28;101102.6;;;-0.32;59.05469
59987;BME280;46181;51.498;5.392;2022-12-13T02:38:58;101104.1;;;-0.29;59.00684
59987;BME280;46181;51.498;5.392;2022-12-13T02:43:28;101093.6;;;-0.31;58.98047
59987;BME280;46181;51.498;5.392;2022-12-13T02:47:56;101097.2;;;-0.29;58.81836
59987;BME280;46181;51.498;5.392;2022-12-13T02:52:28;101084.5;;;-0.29;58.9834
59987;BME280;46181;51.498;5.392;2022-12-13T03:01:35;101077;;;-0.31;58.96973
59987;BME280;46181;51.498;5.392;2022-12-13T03:05:59;101076.4;;;-0.29;58.99414
59987;BME280;46181;51.498;5.392;2022-12-13T03:10:31;101071.7;;;-0.31;58.98047
59987;BME280;46181;51.498;5.392;2022-12-13T03:15:02;101076.7;;;-0.31;59.00293
59987;BME280;46181;51.498;5.392;2022-12-13T03:19:26;101078.2;;;-0.31;59.04688
59987;BME280;46181;51.498;5.392;2022-12-13T03:23:55;101079.5;;;-0.31;59.01367
59987;BME280;46181;51.498;5.392;2022-12-13T03:28:26;101079.2;;;-0.3;59.10156
59987;BME280;46181;51.498;5.392;2022-12-13T03:32:55;101079.1;;;-0.3;59.05859
59987;BME280;46181;51.498;5.392;2022-12-13T03:37:25;101080;;;-0.31;59.10156
59987;BME280;46181;51.498;5.392;2022-12-13T03:41:56;101076.1;;;-0.3;59.13574
59987;BME280;46181;51.498;5.392;2022-12-13T03:46:25;101070.1;;;-0.33;59.16504
59987;BME280;46181;51.498;5.392;2022-12-13T03:50:56;101073.4;;;-0.32;59.18652
59987;BME280;46181;51.498;5.392;2022-12-13T03:55:25;101073.2;;;-0.32;59.28613
59987;BME280;46181;51.498;5.392;2022-12-13T03:59:55;101067;;;-0.32;59.14258
59987;BME280;46181;51.498;5.392;2022-12-13T04:04:25;101064.1;;;-0.33;59.22949
59987;BME280;46181;51.498;5.392;2022-12-13T04:08:55;101062.5;;;-0.33;59.26367
59987;BME280;46181;51.498;5.392;2022-12-13T04:13:25;101066.4;;;-0.35;59.22656
59987;BME280;46181;51.498;5.392;2022-12-13T04:17:55;101059.6;;;-0.37;59.20215
59987;BME280;46181;51.498;5.392;2022-12-13T04:22:25;101058.5;;;-0.38;59.24512
59987;BME280;46181;51.498;5.392;2022-12-13T04:26:55;101053.9;;;-0.41;59.27441
59987;BME280;46181;51.498;5.392;2022-12-13T04:31:25;101051.8;;;-0.43;59.27051
59987;BME280;46181;51.498;5.392;2022-12-13T04:35:55;101056.8;;;-0.46;59.28809
59987;BME280;46181;51.498;5.392;2022-12-13T04:40:25;101048.7;;;-0.47;59.33105
59987;BME280;46181;51.498;5.392;2022-12-13T04:44:55;101043.7;;;-0.48;59.35156
59987;BME280;46181;51.498;5.392;2022-12-13T04:49:25;101042;;;-0.5;59.36035
59987;BME280;46181;51.498;5.392;2022-12-13T04:53:55;101037.7;;;-0.51;59.42383
59987;BME280;46181;51.498;5.392;2022-12-13T04:58:26;101038.9;;;-0.55;59.45215
59987;BME280;46181;51.498;5.392;2022-12-13T05:02:55;101038.9;;;-0.51;59.46777
59987;BME280;46181;51.498;5.392;2022-12-13T05:07:25;101044.1;;;-0.49;59.51367
59987;BME280;46181;51.498;5.392;2022-12-13T05:11:55;101040.3;;;-0.51;59.5332
59987;BME280;46181;51.498;5.392;2022-12-13T05:16:25;101034.1;;;-0.49;59.5791
59987;BME280;46181;51.498;5.392;2022-12-13T05:20:55;101032.5;;;-0.49;59.61328
59987;BME280;46181;51.498;5.392;2022-12-13T05:25:26;101032.5;;;-0.49;59.56934
59987;BME280;46181;51.498;5.392;2022-12-13T05:29:56;101024.3;;;-0.49;59.58105
59987;BME280;46181;51.498;5.392;2022-12-13T05:34:25;101020.6;;;-0.52;59.59863
59987;BME280;46181;51.498;5.392;2022-12-13T05:38:55;101021;;;-0.48;59.55859
59987;BME280;46181;51.498;5.392;2022-12-13T05:43:25;101013.8;;;-0.46;59.65039
59987;BME280;46181;51.498;5.392;2022-12-13T05:47:56;101014.3;;;-0.42;59.72266
59987;BME280;46181;51.498;5.392;2022-12-13T05:52:29;101010.9;;;-0.41;59.73438
59987;BME280;46181;51.498;5.392;2022-12-13T05:56:55;101011.2;;;-0.38;59.79297
59987;BME280;46181;51.498;5.392;2022-12-13T06:01:25;101012.3;;;-0.36;59.8291
59987;BME280;46181;51.498;5.392;2022-12-13T06:05:55;101018.5;;;-0.36;59.86328
59987;BME280;46181;51.498;5.392;2022-12-13T06:10:26;101016.7;;;-0.3;59.66113
59987;BME280;46181;51.498;5.392;2022-12-13T06:14:55;101023.4;;;-0.32;59.69141
59987;BME280;46181;51.498;5.392;2022-12-13T06:19:26;101021.9;;;-0.38;59.77148
59987;BME280;46181;51.498;5.392;2022-12-13T06:23:55;101014.5;;;-0.43;59.78516
59987;BME280;46181;51.498;5.392;2022-12-13T06:28:25;101016.8;;;-0.45;59.79297
59987;BME280;46181;51.498;5.392;2022-12-13T06:32:55;101016.2;;;-0.51;59.83984
59987;BME280;46181;51.498;5.392;2022-12-13T06:37:25;101023.3;;;-0.51;59.91699
59987;BME280;46181;51.498;5.392;2022-12-13T06:41:55;101023.5;;;-0.52;59.90625
59987;BME280;46181;51.498;5.392;2022-12-13T06:46:25;101027.5;;;-0.55;59.8916
59987;BME280;46181;51.498;5.392;2022-12-13T06:50:55;101027;;;-0.56;59.91016
59987;BME280;46181;51.498;5.392;2022-12-13T06:55:25;101017.4;;;-0.58;59.93945
59987;BME280;46181;51.498;5.392;2022-12-13T06:59:55;101012.3;;;-0.62;59.94629
59987;BME280;46181;51.498;5.392;2022-12-13T07:04:25;101023;;;-0.62;59.93457
59987;BME280;46181;51.498;5.392;2022-12-13T07:08:57;101018.5;;;-0.63;59.99902
59987;BME280;46181;51.498;5.392;2022-12-13T07:13:25;101023.3;;;-0.61;59.95898
59987;BME280;46181;51.498;5.392;2022-12-13T07:17:56;101019.7;;;-0.6;60.00391
59987;BME280;46181;51.498;5.392;2022-12-13T07:22:25;101015.7;;;-0.58;60.00684
59987;BME280;46181;51.498;5.392;2022-12-13T07:26:55;101013.8;;;-0.53;60.0459
59987;BME280;46181;51.498;5.392;2022-12-13T07:31:25;101015.3;;;-0.5;60.02734
59987;BME280;46181;51.498;5.392;2022-12-13T07:36:02;101014.2;;;-0.47;60.05371
59987;BME280;46181;51.498;5.392;2022-12-13T07:40:25;101020.6;;;-0.47;60.03125
59987;BME280;46181;51.498;5.392;2022-12-13T07:44:55;101021.8;;;-0.46;59.99023
59987;BME280;46181;51.498;5.392;2022-12-13T07:49:25;101017.2;;;-0.44;59.98145
59987;BME280;46181;51.498;5.392;2022-12-13T07:53:55;101032.6;;;-0.43;60.09277
59987;BME280;46181;51.498;5.392;2022-12-13T07:58:25;101031.3;;;-0.4;60.12988
59987;BME280;46181;51.498;5.392;2022-12-13T08:02:55;101031.8;;;-0.37;60.17871
59987;BME280;46181;51.498;5.392;2022-12-13T08:07:25;101030.5;;;-0.33;60.19434
59987;BME280;46181;51.498;5.392;2022-12-13T08:11:55;101025;;;-0.29;60.18945
59987;BME280;46181;51.498;5.392;2022-12-13T08:16:25;101030.8;;;-0.21;60.27637
59987;BME280;46181;51.498;5.392;2022-12-13T08:20:55;101035.2;;;-0.12;60.30078
59987;BME280;46181;51.498;5.392;2022-12-13T08:25:26;101032.3;;;-0.04;60.25879
59987;BME280;46181;51.498;5.392;2022-12-13T08:29:56;101047.3;;;0.05;60.36816
59987;BME280;46181;51.498;5.392;2022-12-13T08:34:26;101041.1;;;0.14;60.22949
59987;BME280;46181;51.498;5.392;2022-12-13T08:38:57;101043.9;;;0.24;60.19922
59987;BME280;46181;51.498;5.392;2022-12-13T08:43:25;101036.3;;;0.39;60.20801
59987;BME280;46181;51.498;5.392;2022-12-13T08:47:56;101038.3;;;0.51;60.13867
59987;BME280;46181;51.498;5.392;2022-12-13T08:52:25;101039;;;0.6;60.16113
59987;BME280;46181;51.498;5.392;2022-12-13T08:56:55;101054.2;;;0.73;60.13574
59987;BME280;46181;51.498;5.392;2022-12-13T09:01:25;101065.5;;;0.87;60.08887
59987;BME280;46181;51.498;5.392;2022-12-13T09:05:56;101061;;;1.06;60.12793
59987;BME280;46181;51.498;5.392;2022-12-13T09:10:25;101064.2;;;1.26;60.0459
59987;BME280;46181;51.498;5.392;2022-12-13T09:14:56;101056.1;;;1.35;59.83789
59987;BME280;46181;51.498;5.392;2022-12-13T09:19:26;101055.5;;;1.46;59.77637
59987;BME280;46181;51.498;5.392;2022-12-13T09:23:55;101061.4;;;1.57;59.60449
59987;BME280;46181;51.498;5.392;2022-12-13T09:28:26;101062.1;;;1.63;59.53418
59987;BME280;46181;51.498;5.392;2022-12-13T09:32:55;101062.7;;;1.7;59.55566
59987;BME280;46181;51.498;5.392;2022-12-13T09:37:25;101064.8;;;1.75;59.55176
59987;BME280;46181;51.498;5.392;2022-12-13T09:41:57;101060.9;;;1.82;59.62988
59987;BME280;46181;51.498;5.392;2022-12-13T09:46:30;101060.1;;;1.9;59.60645
59987;BME280;46181;51.498;5.392;2022-12-13T09:50:56;101059.1;;;2;59.40137
59987;BME280;46181;51.498;5.392;2022-12-13T09:55:38;101057.4;;;2.06;59.37402
59987;BME280;46181;51.498;5.392;2022-12-13T09:59:56;101053.1;;;2.15;59.26758
59987;BME280;46181;51.498;5.392;2022-12-13T10:04:26;101048.4;;;2.23;59.14551
59987;BME280;46181;51.498;5.392;2022-12-13T10:08:57;101047.6;;;2.31;59.15625
59987;BME280;46181;51.498;5.392;2022-12-13T10:13:31;101039.3;;;2.35;59.01758
59987;BME280;46181;51.498;5.392;2022-12-13T10:17:56;101021.7;;;2.42;58.99512
59987;BME280;46181;51.498;5.392;2022-12-13T10:22:26;101025;;;2.54;59
59987;BME280;46181;51.498;5.392;2022-12-13T10:26:56;101030.6;;;2.6;58.88672
59987;BME280;46181;51.498;5.392;2022-12-13T10:31:28;101011.5;;;2.67;58.88574
59987;BME280;46181;51.498;5.392;2022-12-13T10:36:12;101007.4;;;2.62;58.91211
59987;BME280;46181;51.498;5.392;2022-12-13T10:40:36;100999.5;;;2.63;58.63672
59987;BME280;46181;51.498;5.392;2022-12-13T10:49:30;101000.5;;;2.57;58.52832
59987;BME280;46181;51.498;5.392;2022-12-13T10:53:58;100988;;;2.65;58.52832
59987;BME280;46181;51.498;5.392;2022-12-13T10:58:37;100981.7;;;2.85;58.63477
59987;BME280;46181;51.498;5.392;2022-12-13T11:03:02;100977;;;3.09;58.69922
59987;BME280;46181;51.498;5.392;2022-12-13T11:07:33;100970.8;;;3.29;58.40625
59987;BME280;46181;51.498;5.392;2022-12-13T11:11:59;100966.4;;;3.39;57.95605
59987;BME280;46181;51.498;5.392;2022-12-13T11:16:33;100959;;;3.4;58.01172
59987;BME280;46181;51.498;5.392;2022-12-13T11:21:02;100949.4;;;3.46;57.8418
59987;BME280;46181;51.498;5.392;2022-12-13T11:25:32;100966.3;;;3.51;57.50586
59987;BME280;46181;51.498;5.392;2022-12-13T11:30:13;100954.4;;;3.51;57.55176
59987;BME280;46181;51.498;5.392;2022-12-13T11:34:34;100943.8;;;3.58;57.34961
59987;BME280;46181;51.498;5.392;2022-12-13T11:39:13;100944.7;;;3.6;57.07422
59987;BME280;46181;51.498;5.392;2022-12-13T11:43:31;100945.5;;;3.64;56.66992
59987;BME280;46181;51.498;5.392;2022-12-13T11:47:59;100944.3;;;3.68;56.55371
59987;BME280;46181;51.498;5.392;2022-12-13T11:52:32;100935.8;;;3.67;56.5752
59987;BME280;46181;51.498;5.392;2022-12-13T11:56:57;100928.4;;;3.69;56.34473
59987;BME280;46181;51.498;5.392;2022-12-13T12:01:31;100918.8;;;3.68;56.29883
59987;BME280;46181;51.498;5.392;2022-12-13T12:06:00;100909.4;;;3.68;56.19922
59987;BME280;46181;51.498;5.392;2022-12-13T12:10:32;100910;;;3.71;56.25879
59987;BME280;46181;51.498;5.392;2022-12-13T12:14:59;100899.5;;;3.84;56.28613
59987;BME280;46181;51.498;5.392;2022-12-13T12:19:29;100896.6;;;3.95;56.00195
59987;BME280;46181;51.498;5.392;2022-12-13T12:24:07;100904.1;;;3.97;55.86035
59987;BME280;46181;51.498;5.392;2022-12-13T12:28:33;100904.4;;;3.93;55.7207
59987;BME280;46181;51.498;5.392;2022-12-13T12:33:01;100904.5;;;3.91;55.55273
59987;BME280;46181;51.498;5.392;2022-12-13T12:37:33;100891.9;;;3.84;55.5
59987;BME280;46181;51.498;5.392;2022-12-13T12:42:09;100895.6;;;3.89;55.50586
59987;BME280;46181;51.498;5.392;2022-12-13T12:46:45;100902.5;;;3.85;55.54492
59987;BME280;46181;51.498;5.392;2022-12-13T12:50:59;100913.5;;;3.82;55.51953
59987;BME280;46181;51.498;5.392;2022-12-13T12:55:32;100912.2;;;3.81;55.35156
59987;BME280;46181;51.498;5.392;2022-12-13T13:00:02;100907;;;3.8;55.42773
59987;BME280;46181;51.498;5.392;2022-12-13T13:04:28;100893.4;;;3.85;55.38867
59987;BME280;46181;51.498;5.392;2022-12-13T13:08:59;100891;;;3.9;55.41797
59987;BME280;46181;51.498;5.392;2022-12-13T13:13:43;100894.6;;;3.91;55.3418
59987;BME280;46181;51.498;5.392;2022-12-13T13:17:56;100899.5;;;4;55.11035
59987;BME280;46181;51.498;5.392;2022-12-13T13:22:42;100890.8;;;3.92;55.35547
59987;BME280;46181;51.498;5.392;2022-12-13T13:26:58;100893.3;;;4.07;55.08496
59987;BME280;46181;51.498;5.392;2022-12-13T13:31:26;100892.8;;;4.13;54.94922
59987;BME280;46181;51.498;5.392;2022-12-13T13:35:59;100879.4;;;4.15;54.81641
59987;BME280;46181;51.498;5.392;2022-12-13T13:40:39;100880;;;4.14;54.89355
59987;BME280;46181;51.498;5.392;2022-12-13T13:49:26;100858.4;;;4.28;54.41309
59987;BME280;46181;51.498;5.392;2022-12-13T14:12:29;100843.1;;;4.13;54.49219
59987;BME280;46181;51.498;5.392;2022-12-13T14:16:55;100844.7;;;4.15;54.39648
59987;BME280;46181;51.498;5.392;2022-12-13T14:21:05;100846.7;;;4.18;54.33398
59987;BME280;46181;51.498;5.392;2022-12-13T14:25:54;100837.3;;;4.18;54.36621
59987;BME280;46181;51.498;5.392;2022-12-13T14:29:57;100826.9;;;4.26;54.28809
59987;BME280;46181;51.498;5.392;2022-12-13T14:34:30;100825.6;;;4.23;54.22852
59987;BME280;46181;51.498;5.392;2022-12-13T14:39:02;100822.2;;;4.27;54.14551
59987;BME280;46181;51.498;5.392;2022-12-13T14:43:33;100817.5;;;4.2;54.125
59987;BME280;46181;51.498;5.392;2022-12-13T14:47:56;100818.1;;;4.21;54.07129
59987;BME280;46181;51.498;5.392;2022-12-13T14:52:31;100817.8;;;4.15;54.15039
59987;BME280;46181;51.498;5.392;2022-12-13T14:57:12;100819.1;;;4.08;54.34277
59987;BME280;46181;51.498;5.392;2022-12-13T15:01:37;100804.2;;;4.06;54.47363
59987;BME280;46181;51.498;5.392;2022-12-13T15:06:00;100803.4;;;4.08;54.28711
59987;BME280;46181;51.498;5.392;2022-12-13T15:10:36;100801.2;;;4.03;54.27051
59987;BME280;46181;51.498;5.392;2022-12-13T15:14:59;100801.6;;;4;54.2666
59987;BME280;46181;51.498;5.392;2022-12-13T15:19:27;100792.4;;;3.95;54.21582
59987;BME280;46181;51.498;5.392;2022-12-13T15:23:56;100784.6;;;3.91;54.29883
59987;BME280;46181;51.498;5.392;2022-12-13T15:28:27;100781.1;;;3.9;54.29883
59987;BME280;46181;51.498;5.392;2022-12-13T15:33:15;100771.2;;;3.74;54.55469
59987;BME280;46181;51.498;5.392;2022-12-13T15:37:31;100771.3;;;3.76;54.34668
59987;BME280;46181;51.498;5.392;2022-12-13T15:41:57;100766.8;;;3.73;54.41016
59987;BME280;46181;51.498;5.392;2022-12-13T15:46:32;100765.3;;;3.66;54.43457
59987;BME280;46181;51.498;5.392;2022-12-13T15:51:07;100763.1;;;3.71;54.36328
59987;BME280;46181;51.498;5.392;2022-12-13T15:55:40;100767.1;;;3.6;54.58008
59987;BME280;46181;51.498;5.392;2022-12-13T16:00:14;100756.7;;;3.64;54.39746
59987;BME280;46181;51.498;5.392;2022-12-13T16:04:30;100753.7;;;3.56;54.43262
59987;BME280;46181;51.498;5.392;2022-12-13T16:08:58;100759.2;;;3.6;54.49121
59987;BME280;46181;51.498;5.392;2022-12-13T16:13:31;100755.1;;;3.58;54.58887
59987;BME280;46181;51.498;5.392;2022-12-13T16:18:03;100754.2;;;3.61;54.30566
59987;BME280;46181;51.498;5.392;2022-12-13T16:22:26;100757.3;;;3.58;54.37988
59987;BME280;46181;51.498;5.392;2022-12-13T16:26:56;100759.1;;;3.54;54.36426
59987;BME280;46181;51.498;5.392;2022-12-13T16:31:27;100762.9;;;3.48;54.40039
59987;BME280;46181;51.498;5.392;2022-12-13T16:35:56;100759.6;;;3.45;54.38574
59987;BME280;46181;51.498;5.392;2022-12-13T16:40:37;100760.4;;;3.36;54.43945
59987;BME280;46181;51.498;5.392;2022-12-13T16:44:56;100751.4;;;3.39;54.25586
59987;BME280;46181;51.498;5.392;2022-12-13T16:49:31;100747.3;;;3.33;54.22559
59987;BME280;46181;51.498;5.392;2022-12-13T16:53:56;100747;;;3.39;54.14551
59987;BME280;46181;51.498;5.392;2022-12-13T16:58:26;100739.3;;;3.39;53.95703
59987;BME280;46181;51.498;5.392;2022-12-13T17:02:56;100738.7;;;3.37;53.89746
59987;BME280;46181;51.498;5.392;2022-12-13T17:07:26;100733.9;;;3.37;53.74316
59987;BME280;46181;51.498;5.392;2022-12-13T17:11:56;100734.7;;;3.35;53.62988
59987;BME280;46181;51.498;5.392;2022-12-13T17:16:26;100737.5;;;3.33;53.63867
59987;BME280;46181;51.498;5.392;2022-12-13T17:20:56;100738.9;;;3.34;53.34082
59987;BME280;46181;51.498;5.392;2022-12-13T17:25:26;100739.5;;;3.34;53.45117
59987;BME280;46181;51.498;5.392;2022-12-13T17:29:56;100743.5;;;3.39;53.22559
59987;BME280;46181;51.498;5.392;2022-12-13T17:34:26;100740.5;;;3.34;53.28516
59987;BME280;46181;51.498;5.392;2022-12-13T17:38:56;100733.7;;;3.28;53.42188
59987;BME280;46181;51.498;5.392;2022-12-13T17:43:26;100727;;;3.24;53.55957
59987;BME280;46181;51.498;5.392;2022-12-13T17:47:56;100719.9;;;3.2;53.60059
59987;BME280;46181;51.498;5.392;2022-12-13T17:52:26;100727.5;;;3.2;53.58984
59987;BME280;46181;51.498;5.392;2022-12-13T17:56:56;100722.7;;;3.19;53.67578
59987;BME280;46181;51.498;5.392;2022-12-13T18:01:27;100723.7;;;3.16;53.76074
59987;BME280;46181;51.498;5.392;2022-12-13T18:06:02;100721.5;;;3.12;53.88965
59987;BME280;46181;51.498;5.392;2022-12-13T18:10:26;100728.2;;;3.19;53.82129
59987;BME280;46181;51.498;5.392;2022-12-13T18:14:56;100722.5;;;3.21;53.80078
59987;BME280;46181;51.498;5.392;2022-12-13T18:19:26;100724.6;;;3.2;53.77637
59987;BME280;46181;51.498;5.392;2022-12-13T18:23:56;100730.9;;;3.2;53.77637
59987;BME280;46181;51.498;5.392;2022-12-13T18:28:26;100720.5;;;3.19;53.76563
59987;BME280;46181;51.498;5.392;2022-12-13T18:32:56;100722;;;3.17;53.79688
59987;BME280;46181;51.498;5.392;2022-12-13T18:37:26;100716.3;;;3.17;53.7959
59987;BME280;46181;51.498;5.392;2022-12-13T18:41:56;100707.3;;;3.12;53.83398
59987;BME280;46181;51.498;5.392;2022-12-13T18:46:26;100698.4;;;3.1;53.85254
59987;BME280;46181;51.498;5.392;2022-12-13T18:50:56;100699.7;;;3.08;53.92773
59987;BME280;46181;51.498;5.392;2022-12-13T18:55:26;100685.7;;;3.03;53.98926
59987;BME280;46181;51.498;5.392;2022-12-13T18:59:56;100682.1;;;3.05;54.02344
59987;BME280;46181;51.498;5.392;2022-12-13T19:04:26;100680.9;;;3.08;53.96094
59987;BME280;46181;51.498;5.392;2022-12-13T19:08:58;100679.9;;;3.07;54.01465
59987;BME280;46181;51.498;5.392;2022-12-13T19:13:26;100675.5;;;3.08;54.08301
59987;BME280;46181;51.498;5.392;2022-12-13T19:17:56;100677.5;;;3.09;54.0957
59987;BME280;46181;51.498;5.392;2022-12-13T19:22:26;100672.9;;;3.08;54.08301
59987;BME280;46181;51.498;5.392;2022-12-13T19:26:56;100656.7;;;3.05;54.0791
59987;BME280;46181;51.498;5.392;2022-12-13T19:31:26;100656;;;3.02;54.13184
59987;BME280;46181;51.498;5.392;2022-12-13T19:35:56;100651.9;;;3.01;54.18457
59987;BME280;46181;51.498;5.392;2022-12-13T19:40:26;100645.3;;;3;54.20703
59987;BME280;46181;51.498;5.392;2022-12-13T19:44:56;100646.6;;;3;54.17285
59987;BME280;46181;51.498;5.392;2022-12-13T19:49:26;100635.7;;;2.98;54.22559
59987;BME280;46181;51.498;5.392;2022-12-13T19:53:56;100627.7;;;3;54.10645
59987;BME280;46181;51.498;5.392;2022-12-13T19:58:26;100617.5;;;2.99;54.12695
59987;BME280;46181;51.498;5.392;2022-12-13T20:02:56;100608.9;;;2.96;54.11133
59987;BME280;46181;51.498;5.392;2022-12-13T20:07:26;100610.4;;;2.96;54.12305
59987;BME280;46181;51.498;5.392;2022-12-13T20:11:56;100597.3;;;2.95;54.21094
59987;BME280;46181;51.498;5.392;2022-12-13T20:16:27;100591.5;;;2.94;54.26465
59987;BME280;46181;51.498;5.392;2022-12-13T20:21:03;100583.8;;;2.98;54.25879
59987;BME280;46181;51.498;5.392;2022-12-13T20:25:26;100578.4;;;2.98;54.25879
59987;BME280;46181;51.498;5.392;2022-12-13T20:29:56;100576.3;;;3;54.23926
59987;BME280;46181;51.498;5.392;2022-12-13T20:34:26;100563.1;;;3;54.20703
59987;BME280;46181;51.498;5.392;2022-12-13T20:38:57;100555.7;;;3.02;54.10938
59987;BME280;46181;51.498;5.392;2022-12-13T20:43:26;100561.5;;;3;54.11719
59987;BME280;46181;51.498;5.392;2022-12-13T20:47:56;100558.5;;;3.02;53.98633
59987;BME280;46181;51.498;5.392;2022-12-13T20:52:26;100553.8;;;3.01;53.91895
59987;BME280;46181;51.498;5.392;2022-12-13T20:56:56;100543.5;;;2.98;53.95996
59987;BME280;46181;51.498;5.392;2022-12-13T21:01:28;100531.1;;;2.98;53.83789
59987;BME280;46181;51.498;5.392;2022-12-13T21:05:56;100520;;;2.98;53.7168
59987;BME280;46181;51.498;5.392;2022-12-13T21:10:26;100518.2;;;2.96;53.64746
59987;BME280;46181;51.498;5.392;2022-12-13T21:14:56;100517;;;2.94;53.62305
59987;BME280;46181;51.498;5.392;2022-12-13T21:19:28;100519.4;;;2.94;53.56641
59987;BME280;46181;51.498;5.392;2022-12-13T21:23:56;100513.2;;;2.93;53.57813
59987;BME280;46181;51.498;5.392;2022-12-13T21:28:26;100505.2;;;2.95;53.50293
59987;BME280;46181;51.498;5.392;2022-12-13T21:32:56;100503;;;2.95;53.45801
59987;BME280;46181;51.498;5.392;2022-12-13T21:37:26;100498.9;;;2.96;53.33594
59987;BME280;46181;51.498;5.392;2022-12-13T21:41:56;100487.4;;;2.94;53.36816
59987;BME280;46181;51.498;5.392;2022-12-13T21:46:27;100492.2;;;2.95;53.28125
59987;BME280;46181;51.498;5.392;2022-12-13T21:51:00;100479.3;;;2.9;53.30762
59987;BME280;46181;51.498;5.392;2022-12-13T21:55:26;100471.9;;;2.94;53.19043
59987;BME280;46181;51.498;5.392;2022-12-13T21:59:56;100461.2;;;2.9;53.11914
59987;BME280;46181;51.498;5.392;2022-12-13T22:04:27;100461.2;;;2.88;53.08398
59987;BME280;46181;51.498;5.392;2022-12-13T22:08:56;100465.3;;;2.89;53.1416
59987;BME280;46181;51.498;5.392;2022-12-13T22:13:26;100457.7;;;2.88;52.90625
59987;BME280;46181;51.498;5.392;2022-12-13T22:17:56;100444.8;;;2.88;52.71875
59987;BME280;46181;51.498;5.392;2022-12-13T22:22:27;100444.6;;;2.85;52.75977
59987;BME280;46181;51.498;5.392;2022-12-13T22:26:56;100442.1;;;2.89;52.66406
59987;BME280;46181;51.498;5.392;2022-12-13T22:31:27;100437.2;;;2.86;52.66016
59987;BME280;46181;51.498;5.392;2022-12-13T22:35:56;100425.3;;;2.87;52.51758
59987;BME280;46181;51.498;5.392;2022-12-13T22:40:26;100426.1;;;2.85;52.29395
59987;BME280;46181;51.498;5.392;2022-12-13T22:44:56;100434.4;;;2.85;52.23926
59987;BME280;46181;51.498;5.392;2022-12-13T22:49:26;100438.9;;;2.85;52.20605
59987;BME280;46181;51.498;5.392;2022-12-13T22:53:56;100433.1;;;2.81;52.25586
59987;BME280;46181;51.498;5.392;2022-12-13T22:58:26;100440;;;2.79;52.1416
59987;BME280;46181;51.498;5.392;2022-12-13T23:02:56;100435.7;;;2.76;52.06152
59987;BME280;46181;51.498;5.392;2022-12-13T23:07:26;100437.8;;;2.77;52.11816
59987;BME280;46181;51.498;5.392;2022-12-13T23:11:56;100441.8;;;2.82;52.25684
59987;BME280;46181;51.498;5.392;2022-12-13T23:16:27;100434.5;;;2.85;52.11719
59987;BME280;46181;51.498;5.392;2022-12-13T23:20:57;100415.7;;;2.88;51.87695
59987;BME280;46181;51.498;5.392;2022-12-13T23:25:26;100421.8;;;2.92;51.71582
59987;BME280;46181;51.498;5.392;2022-12-13T23:29:56;100414.4;;;2.96;51.6875
59987;BME280;46181;51.498;5.392;2022-12-13T23:34:26;100408.1;;;2.98;51.63379
59987;BME280;46181;51.498;5.392;2022-12-13T23:38:56;100398.3;;;3.03;51.74023
59987;BME280;46181;51.498;5.392;2022-12-13T23:43:26;100403;;;3.06;51.4668